Time;durP1;ratioP1;P1;durP2;ratioP2;P2;SDS_P1;SDS_P2;PMS_P1;PMS_P2;Temp;Humidity;BMP_temperature;BMP_pressure;BME280_temperature;BME280_humidity;BME280_pressure;Samples;Min_cycle;Max_cycle;Signal;HPM_P1;HPM_P2
2022/03/17 00:00:03;;;;;;;16.60;5.45;;;11.80;99.90;;;;;;5033775;28;20494;-67
2022/03/17 00:02:28;;;;;;;15.68;6.65;;;11.80;99.90;;;;;;5033082;28;20393;-67
2022/03/17 00:04:54;;;;;;;22.10;6.28;;;11.80;99.90;;;;;;5038810;28;20033;-67
2022/03/17 00:07:20;;;;;;;16.33;5.50;;;11.70;99.90;;;;;;5035111;28;20026;-67
2022/03/17 00:09:46;;;;;;;15.65;5.60;;;11.70;99.90;;;;;;5037166;28;20082;-67
2022/03/17 00:12:13;;;;;;;23.55;6.82;;;11.60;99.90;;;;;;5037782;28;20029;-67
2022/03/17 00:14:38;;;;;;;17.27;5.70;;;11.60;99.90;;;;;;5039893;28;20408;-67
2022/03/17 00:17:04;;;;;;;12.25;4.35;;;11.60;99.90;;;;;;5041079;28;20025;-67
2022/03/17 00:19:30;;;;;;;18.38;6.15;;;11.60;99.90;;;;;;5038783;28;20426;-67
2022/03/17 00:21:56;;;;;;;17.25;6.70;;;11.70;99.90;;;;;;5040369;28;20564;-67
2022/03/17 00:24:21;;;;;;;16.63;6.32;;;11.70;99.90;;;;;;5037607;28;20064;-67
2022/03/17 00:26:47;;;;;;;16.23;5.97;;;11.60;99.90;;;;;;5037281;28;20056;-67
2022/03/17 00:29:12;;;;;;;18.63;6.18;;;11.70;99.90;;;;;;5033998;28;20110;-67
2022/03/17 00:31:39;;;;;;;18.92;7.20;;;11.70;99.90;;;;;;5031628;28;20064;-67
2022/03/17 00:34:06;;;;;;;14.93;5.25;;;11.60;99.90;;;;;;5021556;28;20135;-67
2022/03/17 00:36:34;;;;;;;17.92;6.10;;;11.70;99.90;;;;;;5037729;28;20025;-67
2022/03/17 00:39:08;;;;;;;17.90;6.53;;;11.80;99.90;;;;;;5040538;28;20026;-67
2022/03/17 00:41:34;;;;;;;20.52;7.13;;;11.70;99.90;;;;;;5035318;28;20516;-67
2022/03/17 00:44:00;;;;;;;13.65;4.63;;;11.70;99.90;;;;;;5040130;28;20029;-67
2022/03/17 00:46:26;;;;;;;21.08;6.95;;;11.70;99.90;;;;;;5036152;28;20027;-67
2022/03/17 00:48:51;;;;;;;15.73;5.43;;;11.80;99.90;;;;;;5035013;28;20474;-67
2022/03/17 00:51:17;;;;;;;14.75;6.07;;;11.80;99.90;;;;;;5041690;28;20017;-67
2022/03/17 00:53:43;;;;;;;18.42;6.47;;;11.80;99.90;;;;;;5020955;28;20029;-67
2022/03/17 00:56:09;;;;;;;16.90;6.28;;;11.90;99.90;;;;;;5032389;28;20533;-67
2022/03/17 00:58:34;;;;;;;14.95;6.18;;;11.80;99.90;;;;;;5031700;28;20333;-67
2022/03/17 01:01:00;;;;;;;13.63;4.85;;;11.80;99.90;;;;;;5035094;28;20097;-67
2022/03/17 01:03:26;;;;;;;19.38;6.18;;;11.80;99.90;;;;;;5034744;28;20383;-67
2022/03/17 01:05:53;;;;;;;21.98;7.00;;;11.90;99.90;;;;;;5039567;28;20104;-67
2022/03/17 01:08:19;;;;;;;19.73;6.75;;;11.80;99.90;;;;;;5033947;28;20070;-67
2022/03/17 01:10:45;;;;;;;14.27;5.90;;;11.70;99.90;;;;;;5032791;28;20032;-67
2022/03/17 01:13:10;;;;;;;18.00;5.88;;;11.70;99.90;;;;;;5019063;28;20481;-67
2022/03/17 01:15:36;;;;;;;16.83;6.22;;;11.70;99.90;;;;;;5040868;28;20033;-67
2022/03/17 01:18:02;;;;;;;20.77;5.70;;;11.80;99.90;;;;;;5025113;28;20072;-67
2022/03/17 01:20:29;;;;;;;16.00;5.88;;;11.80;99.90;;;;;;5038379;28;20500;-67
2022/03/17 01:22:55;;;;;;;16.13;5.55;;;11.90;99.90;;;;;;5033724;28;20037;-67
2022/03/17 01:25:21;;;;;;;18.33;5.88;;;11.90;99.90;;;;;;5024846;28;20083;-67
2022/03/17 01:27:46;;;;;;;18.83;5.80;;;11.90;99.90;;;;;;5034495;28;20025;-67
2022/03/17 01:30:12;;;;;;;15.93;5.95;;;11.80;99.90;;;;;;5032851;28;20106;-67
2022/03/17 01:32:38;;;;;;;12.98;4.60;;;11.80;99.90;;;;;;5039495;28;20029;-67
2022/03/17 01:35:07;;;;;;;18.35;7.18;;;11.80;99.90;;;;;;5039780;28;20136;-67
2022/03/17 01:37:33;;;;;;;18.98;6.47;;;11.80;99.90;;;;;;5039636;28;20021;-67
2022/03/17 01:39:59;;;;;;;16.15;5.85;;;11.70;99.90;;;;;;5040556;28;20029;-67
2022/03/17 01:42:24;;;;;;;12.52;5.18;;;11.70;99.90;;;;;;5038793;28;20500;-67
2022/03/17 01:44:50;;;;;;;12.32;4.07;;;11.80;99.90;;;;;;5037041;28;20029;-67
2022/03/17 01:47:28;;;;;;;16.98;5.95;;;11.70;99.90;;;;;;5024559;28;20029;-67
2022/03/17 01:50:00;;;;;;;17.08;7.40;;;11.80;99.90;;;;;;5037660;28;20025;-67
2022/03/17 01:52:26;;;;;;;16.08;5.63;;;11.80;99.90;;;;;;5042276;28;20061;-67
2022/03/17 01:54:51;;;;;;;15.90;6.22;;;11.70;99.90;;;;;;5015677;28;20032;-67
2022/03/17 01:57:17;;;;;;;15.75;7.03;;;11.70;99.90;;;;;;5036722;28;20489;-67
2022/03/17 01:59:43;;;;;;;20.50;6.45;;;11.80;99.90;;;;;;5019274;28;20492;-67
2022/03/17 02:02:12;;;;;;;19.77;6.20;;;11.80;99.90;;;;;;5035129;28;20036;-67
2022/03/17 02:04:41;;;;;;;12.88;4.97;;;11.80;99.90;;;;;;5036295;28;20120;-67
2022/03/17 02:07:08;;;;;;;16.55;6.00;;;11.90;99.90;;;;;;5017958;28;20029;-67
2022/03/17 02:09:34;;;;;;;16.73;6.75;;;11.90;99.90;;;;;;5024744;28;20124;-67
2022/03/17 02:14:54;;;;;;;16.13;5.28;;;11.90;99.90;;;;;;5044758;28;20036;-67
2022/03/17 02:17:21;;;;;;;15.27;5.72;;;11.90;99.90;;;;;;5027399;28;20086;-67
2022/03/17 02:19:47;;;;;;;17.63;5.25;;;11.80;99.90;;;;;;5042838;28;20063;-67
2022/03/17 02:22:16;;;;;;;15.07;5.47;;;11.80;99.90;;;;;;5038569;28;20049;-67
2022/03/17 02:27:35;;;;;;;18.13;5.70;;;11.80;99.90;;;;;;5037939;28;20039;-67
2022/03/17 02:30:03;;;;;;;13.23;5.43;;;11.80;99.90;;;;;;5021590;28;20350;-67
2022/03/17 02:32:29;;;;;;;13.25;5.05;;;11.80;99.90;;;;;;5039770;28;20025;-67
2022/03/17 02:34:54;;;;;;;10.38;3.97;;;11.80;99.90;;;;;;5037435;28;20482;-67
2022/03/17 02:37:21;;;;;;;13.98;6.20;;;11.80;99.90;;;;;;5025631;28;20029;-67
2022/03/17 02:39:46;;;;;;;13.75;4.78;;;11.80;99.90;;;;;;5036480;28;20040;-67
2022/03/17 02:42:12;;;;;;;18.35;5.93;;;11.80;99.90;;;;;;5038448;28;20029;-67
2022/03/17 02:44:38;;;;;;;11.68;4.95;;;11.80;99.90;;;;;;5040870;28;20427;-67
2022/03/17 02:47:05;;;;;;;15.80;6.28;;;11.70;99.90;;;;;;5024638;28;20034;-67
2022/03/17 02:49:31;;;;;;;17.10;5.53;;;11.70;99.90;;;;;;5035988;28;20054;-67
2022/03/17 02:51:57;;;;;;;18.60;7.03;;;11.70;99.90;;;;;;5020273;28;20025;-67
2022/03/17 02:54:22;;;;;;;12.40;5.35;;;11.70;99.90;;;;;;5046350;28;20032;-67
2022/03/17 02:56:48;;;;;;;15.93;5.35;;;11.70;99.90;;;;;;5037314;28;20022;-67
2022/03/17 02:59:14;;;;;;;14.18;5.65;;;11.70;99.90;;;;;;5035460;28;20029;-67
2022/03/17 03:01:40;;;;;;;23.17;6.97;;;11.70;99.90;;;;;;5037423;28;20021;-67
2022/03/17 03:04:05;;;;;;;16.83;5.55;;;11.60;99.90;;;;;;5027568;28;20567;-68
2022/03/17 03:06:31;;;;;;;18.00;7.10;;;11.60;99.90;;;;;;5035382;28;20430;-67
2022/03/17 03:08:58;;;;;;;15.40;6.47;;;11.70;99.90;;;;;;5039842;28;20041;-67
2022/03/17 03:11:24;;;;;;;11.15;5.15;;;11.60;99.90;;;;;;5025852;28;20021;-68
2022/03/17 03:13:49;;;;;;;14.75;5.55;;;11.70;99.90;;;;;;5038933;28;20853;-67
2022/03/17 03:16:15;;;;;;;14.13;5.78;;;11.50;99.90;;;;;;5040067;28;20029;-67
2022/03/17 03:18:40;;;;;;;16.17;5.97;;;11.60;99.90;;;;;;5024976;28;20032;-68
2022/03/17 03:21:07;;;;;;;20.40;7.25;;;11.60;99.90;;;;;;5044738;28;20036;-68
2022/03/17 03:23:33;;;;;;;14.80;6.00;;;11.60;99.90;;;;;;5027880;28;20117;-67
2022/03/17 03:25:59;;;;;;;15.32;5.57;;;11.60;99.90;;;;;;5040229;28;20543;-67
2022/03/17 03:28:25;;;;;;;17.73;6.70;;;11.50;99.90;;;;;;5036075;28;20053;-68
2022/03/17 03:30:51;;;;;;;17.52;7.30;;;11.50;99.90;;;;;;5021302;28;20095;-68
2022/03/17 03:33:17;;;;;;;17.25;6.55;;;11.50;99.90;;;;;;5036404;28;20076;-67
2022/03/17 03:38:27;;;;;;;15.32;6.05;;;11.50;99.90;;;;;;5041369;28;20452;-67
2022/03/17 03:40:53;;;;;;;16.35;6.45;;;11.60;99.90;;;;;;5037977;28;20021;-67
2022/03/17 03:43:18;;;;;;;9.93;4.15;;;11.50;99.90;;;;;;5036036;28;20024;-67
2022/03/17 03:45:44;;;;;;;15.98;5.88;;;11.50;99.90;;;;;;5035626;28;20024;-67
2022/03/17 03:48:10;;;;;;;22.92;6.13;;;11.50;99.90;;;;;;5041704;28;20036;-69
2022/03/17 03:50:37;;;;;;;18.52;6.50;;;11.50;99.90;;;;;;5040799;28;20401;-68
2022/03/17 03:53:03;;;;;;;15.23;6.30;;;11.50;99.90;;;;;;5021606;28;20040;-68
2022/03/17 03:55:29;;;;;;;12.48;4.50;;;11.50;99.90;;;;;;5039358;28;20611;-68
2022/03/17 03:57:54;;;;;;;13.15;5.43;;;11.50;99.90;;;;;;5036669;28;20040;-68
2022/03/17 04:02:58;;;;;;;17.40;6.53;;;11.50;99.90;;;;;;5036148;28;20036;-68
2022/03/17 04:05:26;;;;;;;16.25;7.20;;;11.40;99.90;;;;;;5033639;28;20041;-68
2022/03/17 04:07:52;;;;;;;17.58;5.72;;;11.40;99.90;;;;;;5038243;28;20028;-68
2022/03/17 04:10:18;;;;;;;19.58;7.03;;;11.40;99.90;;;;;;5016203;28;20092;-68
2022/03/17 04:12:43;;;;;;;18.02;7.53;;;11.40;99.90;;;;;;5034980;28;20061;-68
2022/03/17 04:15:09;;;;;;;17.98;6.10;;;11.40;99.90;;;;;;5042692;28;20048;-68
2022/03/17 04:17:35;;;;;;;19.98;7.50;;;11.30;99.90;;;;;;5029355;28;20098;-69
2022/03/17 04:20:01;;;;;;;19.23;7.53;;;11.30;99.90;;;;;;5041805;28;20085;-68
2022/03/17 04:22:27;;;;;;;20.25;6.75;;;11.30;99.90;;;;;;5038151;28;20025;-68
2022/03/17 04:24:53;;;;;;;13.02;4.90;;;11.30;99.90;;;;;;5018327;28;20486;-67
2022/03/17 04:27:19;;;;;;;10.90;4.43;;;11.40;99.90;;;;;;5023469;28;20108;-67
2022/03/17 04:29:44;;;;;;;16.92;7.22;;;11.40;99.90;;;;;;5036255;28;20541;-67
2022/03/17 04:32:10;;;;;;;20.15;8.30;;;11.30;99.90;;;;;;5038582;28;20033;-67
2022/03/17 04:34:36;;;;;;;19.20;6.07;;;11.30;99.90;;;;;;5043686;28;20111;-68
2022/03/17 04:37:02;;;;;;;16.77;6.82;;;11.30;99.90;;;;;;5038377;28;20469;-67
2022/03/17 04:39:27;;;;;;;21.88;7.75;;;11.30;99.90;;;;;;5042415;28;20037;-67
2022/03/17 04:41:53;;;;;;;17.98;8.23;;;11.30;99.90;;;;;;5038060;28;20017;-67
2022/03/17 04:44:19;;;;;;;24.50;8.63;;;11.30;99.90;;;;;;5036566;28;20021;-67
2022/03/17 04:46:46;;;;;;;25.73;7.43;;;11.30;99.90;;;;;;5020544;28;20086;-67
2022/03/17 04:49:12;;;;;;;26.98;8.30;;;11.30;99.90;;;;;;5033859;28;20513;-67
2022/03/17 04:51:37;;;;;;;19.98;7.20;;;11.30;99.90;;;;;;5037348;28;20086;-68
2022/03/17 04:54:03;;;;;;;16.08;6.55;;;11.30;99.90;;;;;;5036203;28;20021;-67
2022/03/17 04:56:29;;;;;;;19.30;7.47;;;11.30;99.90;;;;;;5038903;28;20021;-67
2022/03/17 04:58:54;;;;;;;15.25;6.55;;;11.30;99.90;;;;;;5038252;28;20033;-67
2022/03/17 05:01:20;;;;;;;18.23;7.68;;;11.30;99.90;;;;;;5038961;28;20036;-67
2022/03/17 05:03:46;;;;;;;13.77;6.03;;;11.30;99.90;;;;;;5019934;28;20095;-67
2022/03/17 05:06:14;;;;;;;13.52;4.90;;;11.30;99.90;;;;;;5032295;28;21053;-67
2022/03/17 05:08:40;;;;;;;13.13;5.90;;;11.40;99.90;;;;;;5032810;28;20044;-67
2022/03/17 05:11:09;;;;;;;22.95;6.72;;;11.40;99.90;;;;;;5017972;28;20388;-67
2022/03/17 05:13:36;;;;;;;17.85;7.18;;;11.40;99.90;;;;;;5036530;28;20036;-67
2022/03/17 05:16:06;;;;;;;12.40;5.32;;;11.40;99.90;;;;;;5015832;28;20560;-67
2022/03/17 05:18:33;;;;;;;15.35;5.53;;;11.40;99.90;;;;;;5036484;28;20389;-69
2022/03/17 05:20:59;;;;;;;26.83;7.05;;;11.40;99.90;;;;;;5029779;28;20029;-67
2022/03/17 05:23:24;;;;;;;14.63;5.60;;;11.40;99.90;;;;;;5017108;28;20133;-67
2022/03/17 05:25:51;;;;;;;13.88;5.63;;;11.30;99.90;;;;;;5028908;28;20382;-68
2022/03/17 05:28:17;;;;;;;19.55;7.15;;;11.40;99.90;;;;;;5015507;28;20032;-68
2022/03/17 05:30:43;;;;;;;9.57;4.55;;;11.30;99.90;;;;;;5030258;28;20561;-67
2022/03/17 05:33:11;;;;;;;18.05;6.65;;;11.30;99.90;;;;;;5037621;28;20104;-67
2022/03/17 05:35:38;;;;;;;14.30;5.95;;;11.10;99.90;;;;;;5035183;28;20029;-67
2022/03/17 05:38:04;;;;;;;17.67;6.53;;;11.00;99.90;;;;;;5029132;28;20163;-67
2022/03/17 05:40:29;;;;;;;23.13;8.02;;;10.80;99.90;;;;;;5035120;28;20100;-67
2022/03/17 05:42:57;;;;;;;16.67;6.32;;;10.70;99.90;;;;;;5033371;28;20029;-67
2022/03/17 05:45:27;;;;;;;18.08;6.47;;;10.60;99.90;;;;;;5038172;28;20445;-67
2022/03/17 05:47:58;;;;;;;18.27;5.53;;;10.50;99.90;;;;;;5039545;28;20492;-68
2022/03/17 05:50:30;;;;;;;24.58;7.57;;;10.40;99.90;;;;;;5036594;28;20029;-68
2022/03/17 05:52:56;;;;;;;22.58;7.82;;;10.30;99.90;;;;;;5031391;28;20025;-68
2022/03/17 05:55:23;;;;;;;23.00;9.73;;;10.20;99.90;;;;;;5039455;28;20749;-67
2022/03/17 05:57:51;;;;;;;24.60;8.15;;;10.10;99.90;;;;;;5042830;28;20025;-68
2022/03/17 06:00:23;;;;;;;21.88;7.93;;;10.10;99.90;;;;;;5040915;28;20029;-67
2022/03/17 06:02:49;;;;;;;21.38;6.35;;;10.00;99.90;;;;;;5041158;28;20021;-67
2022/03/17 06:05:15;;;;;;;31.85;9.70;;;10.00;99.90;;;;;;5042308;28;20496;-68
2022/03/17 06:07:41;;;;;;;23.92;8.77;;;9.90;99.90;;;;;;5017224;28;20073;-68
2022/03/17 06:10:14;;;;;;;20.98;7.38;;;9.90;99.90;;;;;;5040475;28;20033;-66
2022/03/17 06:12:41;;;;;;;18.70;7.35;;;9.80;99.90;;;;;;5043237;28;20036;-66
2022/03/17 06:15:07;;;;;;;20.58;7.95;;;9.80;99.90;;;;;;5040618;28;20391;-66
2022/03/17 06:17:41;;;;;;;20.30;8.05;;;9.80;99.90;;;;;;5042681;28;20517;-66
2022/03/17 06:20:09;;;;;;;33.20;9.85;;;9.70;99.90;;;;;;5044009;28;20035;-67
2022/03/17 06:22:39;;;;;;;33.15;10.88;;;9.70;99.90;;;;;;5024136;28;20029;-67
2022/03/17 06:25:06;;;;;;;20.17;7.97;;;9.60;99.90;;;;;;5040503;28;20029;-67
2022/03/17 06:27:34;;;;;;;23.25;9.02;;;9.70;99.90;;;;;;5039201;28;20499;-67
2022/03/17 06:29:59;;;;;;;23.77;9.25;;;9.70;99.90;;;;;;5035878;28;20045;-67
2022/03/17 06:32:26;;;;;;;15.98;6.15;;;9.60;99.90;;;;;;5021965;28;20043;-68
2022/03/17 06:34:51;;;;;;;24.27;10.13;;;9.60;99.90;;;;;;5034619;28;20473;-67
2022/03/17 06:37:17;;;;;;;24.67;9.35;;;9.60;99.90;;;;;;5040150;28;20029;-69
2022/03/17 06:39:43;;;;;;;21.80;7.25;;;9.60;99.90;;;;;;5039773;28;20029;-68
2022/03/17 06:42:08;;;;;;;21.30;9.02;;;9.60;99.90;;;;;;5025496;28;20029;-68
2022/03/17 06:44:34;;;;;;;18.02;7.32;;;9.60;99.90;;;;;;5040586;28;20591;-68
2022/03/17 06:46:59;;;;;;;23.90;9.40;;;9.60;99.90;;;;;;5042562;28;20029;-67
2022/03/17 06:49:25;;;;;;;23.35;8.82;;;9.50;99.90;;;;;;5024888;28;20035;-68
2022/03/17 06:51:50;;;;;;;22.27;6.72;;;9.50;99.90;;;;;;5038333;28;20060;-67
2022/03/17 06:54:16;;;;;;;20.83;9.27;;;9.50;99.90;;;;;;5038386;28;20027;-67
2022/03/17 06:56:42;;;;;;;31.00;10.10;;;9.40;99.90;;;;;;5024491;28;20084;-67
2022/03/17 06:59:07;;;;;;;23.10;8.95;;;9.40;99.90;;;;;;5043318;28;20461;-68
2022/03/17 07:01:33;;;;;;;29.33;9.95;;;9.50;99.90;;;;;;5037079;28;20025;-67
2022/03/17 07:03:58;;;;;;;30.48;9.77;;;9.50;99.90;;;;;;5040054;28;20027;-68
2022/03/17 07:06:24;;;;;;;14.77;6.70;;;9.50;99.90;;;;;;5026080;28;20029;-67
2022/03/17 07:08:50;;;;;;;20.13;8.25;;;9.50;99.90;;;;;;5039023;28;20099;-67
2022/03/17 07:11:15;;;;;;;15.95;7.10;;;9.50;99.90;;;;;;5016688;28;20030;-67
2022/03/17 07:13:41;;;;;;;14.68;5.78;;;9.50;99.90;;;;;;5021524;28;20528;-68
2022/03/17 07:16:09;;;;;;;16.98;8.00;;;9.50;99.90;;;;;;5035975;28;20029;-67
2022/03/17 07:18:34;;;;;;;19.33;7.47;;;9.50;99.90;;;;;;5033975;28;20095;-67
2022/03/17 07:21:00;;;;;;;15.73;6.63;;;9.50;99.90;;;;;;5031078;28;20509;-67
2022/03/17 07:23:26;;;;;;;26.80;9.05;;;9.50;99.90;;;;;;5030248;28;20382;-67
2022/03/17 07:25:53;;;;;;;15.05;5.05;;;9.50;99.90;;;;;;5017382;28;20022;-67
2022/03/17 07:28:21;;;;;;;11.55;4.15;;;9.50;99.90;;;;;;5031874;28;20199;-66
2022/03/17 07:30:47;;;;;;;22.88;9.52;;;9.50;99.90;;;;;;5030060;28;20510;-67
2022/03/17 07:33:13;;;;;;;24.35;11.45;;;9.20;99.90;;;;;;5030355;28;20424;-66
2022/03/17 07:35:39;;;;;;;18.02;8.30;;;9.10;99.90;;;;;;5040251;28;20063;-66
2022/03/17 07:38:05;;;;;;;15.88;7.28;;;9.00;99.90;;;;;;5038847;28;20061;-66
2022/03/17 07:40:32;;;;;;;11.70;5.32;;;9.00;99.90;;;;;;5035923;28;20385;-66
2022/03/17 07:43:00;;;;;;;15.35;6.05;;;9.00;99.90;;;;;;5020705;28;20050;-66
2022/03/17 07:45:26;;;;;;;12.90;4.78;;;8.90;99.90;;;;;;5038415;28;20036;-66
2022/03/17 07:47:52;;;;;;;15.02;6.47;;;8.90;99.90;;;;;;5030516;28;20027;-66
2022/03/17 07:50:18;;;;;;;13.15;6.30;;;8.70;99.90;;;;;;5033822;28;20559;-66
2022/03/17 07:52:44;;;;;;;17.63;5.88;;;8.70;99.90;;;;;;5041691;28;20017;-66
2022/03/17 07:55:09;;;;;;;16.45;7.18;;;8.70;99.90;;;;;;5032488;28;20036;-66
2022/03/17 07:57:36;;;;;;;12.25;4.20;;;8.60;99.90;;;;;;5016837;28;20161;-66
2022/03/17 08:00:07;;;;;;;19.50;8.35;;;8.60;99.90;;;;;;5029473;28;20114;-66
2022/03/17 08:02:33;;;;;;;12.40;5.03;;;8.60;99.90;;;;;;5015836;28;20030;-66
2022/03/17 08:05:01;;;;;;;18.08;5.38;;;8.60;99.90;;;;;;5038134;28;20047;-66
2022/03/17 08:07:28;;;;;;;12.60;3.85;;;8.60;99.90;;;;;;5035888;28;20474;-66
2022/03/17 08:09:54;;;;;;;10.50;3.85;;;8.50;99.90;;;;;;5023068;28;20048;-66
2022/03/17 08:12:20;;;;;;;15.13;6.47;;;8.60;99.90;;;;;;5016626;28;20037;-66
2022/03/17 08:14:46;;;;;;;17.73;7.05;;;8.60;99.90;;;;;;5040884;28;20039;-68
2022/03/17 08:17:12;;;;;;;10.90;2.95;;;8.60;99.90;;;;;;5049476;28;20033;-67
2022/03/17 08:19:37;;;;;;;11.38;5.15;;;8.50;99.90;;;;;;5045724;28;20450;-67
2022/03/17 08:22:03;;;;;;;19.58;5.60;;;8.50;99.90;;;;;;5040198;28;20111;-66
2022/03/17 08:24:29;;;;;;;18.65;6.03;;;8.50;99.90;;;;;;5026700;28;20031;-67
2022/03/17 08:26:55;;;;;;;15.50;5.85;;;8.50;99.90;;;;;;5041436;28;20041;-67
2022/03/17 08:29:32;;;;;;;10.48;4.25;;;8.40;99.90;;;;;;5139301;27;20111;-67
2022/03/17 08:31:59;;;;;;;15.65;5.15;;;8.40;99.90;;;;;;5134207;27;20024;-67
2022/03/17 08:34:26;;;;;;;13.02;5.28;;;8.40;99.90;;;;;;5120412;28;20031;-66
2022/03/17 08:36:54;;;;;;;11.38;4.88;;;8.30;99.90;;;;;;5114741;27;20033;-66
2022/03/17 08:39:20;;;;;;;13.77;5.20;;;8.40;99.90;;;;;;5120714;27;20113;-66
2022/03/17 08:41:46;;;;;;;12.43;4.28;;;8.40;99.90;;;;;;5132406;27;20075;-66
2022/03/17 08:44:12;;;;;;;6.20;2.97;;;8.40;99.90;;;;;;5137941;27;20019;-66
2022/03/17 08:49:24;;;;;;;11.93;4.40;;;8.40;99.90;;;;;;5134560;27;20072;-66
2022/03/17 08:51:53;;;;;;;7.72;3.10;;;8.40;99.90;;;;;;5132137;27;20024;-68
2022/03/17 08:54:23;;;;;;;5.78;2.47;;;8.50;99.90;;;;;;5139874;27;20122;-68
2022/03/17 08:56:50;;;;;;;9.38;2.85;;;8.50;99.90;;;;;;5143017;27;20019;-65
2022/03/17 08:59:16;;;;;;;9.13;3.13;;;8.40;99.90;;;;;;5144403;27;20073;-67
2022/03/17 09:01:41;;;;;;;5.03;2.33;;;8.40;99.90;;;;;;5123403;27;20058;-66
2022/03/17 09:04:07;;;;;;;7.97;2.70;;;8.40;99.90;;;;;;5114095;27;20057;-66
2022/03/17 09:06:35;;;;;;;13.40;4.30;;;8.30;99.90;;;;;;5118270;27;20023;-66
2022/03/17 09:09:00;;;;;;;7.80;3.40;;;8.30;99.90;;;;;;5135282;27;20104;-65
2022/03/17 09:11:26;;;;;;;10.25;4.43;;;8.30;99.90;;;;;;5136283;27;20031;-66
2022/03/17 09:13:52;;;;;;;8.98;3.58;;;8.30;99.90;;;;;;5128190;27;20015;-68
2022/03/17 09:16:18;;;;;;;12.25;3.92;;;8.20;99.90;;;;;;5136700;27;20475;-65
2022/03/17 09:18:44;;;;;;;7.18;3.15;;;8.20;99.90;;;;;;5133277;27;20027;-65
2022/03/17 09:21:10;;;;;;;8.88;4.38;;;8.20;99.90;;;;;;5140561;27;20217;-66
2022/03/17 09:23:35;;;;;;;3.85;1.60;;;8.20;99.90;;;;;;5140018;27;20039;-66
2022/03/17 09:26:01;;;;;;;10.73;3.00;;;8.20;99.90;;;;;;5131791;27;20031;-65
2022/03/17 09:28:27;;;;;;;14.45;3.65;;;8.10;99.90;;;;;;5119980;27;20117;-66
2022/03/17 09:30:57;;;;;;;10.98;3.92;;;8.20;99.90;;;;;;5128726;27;20012;-66
2022/03/17 09:33:26;;;;;;;8.37;3.57;;;8.20;99.90;;;;;;5136490;27;20034;-66
2022/03/17 09:35:56;;;;;;;5.60;2.60;;;8.20;99.90;;;;;;5130871;27;20026;-66
2022/03/17 09:38:22;;;;;;;4.68;1.80;;;8.20;99.90;;;;;;5119636;27;20019;-66
2022/03/17 09:40:48;;;;;;;6.18;1.98;;;8.20;99.90;;;;;;5102790;28;20024;-65
2022/03/17 09:43:28;;;;;;;6.47;2.92;;;8.20;99.90;;;;;;5115557;27;20088;-65
2022/03/17 09:45:56;;;;;;;5.45;2.45;;;8.20;99.90;;;;;;5096291;27;20038;-66
2022/03/17 09:48:23;;;;;;;7.22;2.97;;;8.30;99.90;;;;;;5115324;27;20407;-66
2022/03/17 09:50:58;;;;;;;3.25;1.98;;;8.30;99.90;;;;;;5115350;27;20024;-65
2022/03/17 09:53:24;;;;;;;11.07;3.28;;;8.30;99.90;;;;;;5117273;27;20426;-67
2022/03/17 09:55:51;;;;;;;6.72;2.78;;;8.30;99.90;;;;;;5119483;27;20433;-66
2022/03/17 09:58:17;;;;;;;8.43;2.75;;;8.40;99.90;;;;;;5121336;27;20039;-66
2022/03/17 10:00:50;;;;;;;7.20;2.70;;;8.60;99.90;;;;;;5115877;27;20401;-66
2022/03/17 10:03:22;;;;;;;5.40;2.33;;;8.70;99.90;;;;;;5109543;27;20027;-66
2022/03/17 10:05:49;;;;;;;7.60;2.92;;;8.60;99.90;;;;;;5128358;27;20035;-66
2022/03/17 10:08:16;;;;;;;9.45;2.53;;;8.60;99.90;;;;;;5105589;27;20025;-66
2022/03/17 10:10:43;;;;;;;7.28;2.40;;;8.50;99.90;;;;;;5119938;27;20027;-66
2022/03/17 10:13:25;;;;;;;7.85;3.05;;;8.50;99.90;;;;;;5125683;27;20102;-66
2022/03/17 10:16:06;;;;;;;5.60;2.08;;;8.40;99.90;;;;;;5109766;27;20035;-66
2022/03/17 10:18:36;;;;;;;4.97;1.55;;;8.40;99.90;;;;;;5110801;27;20106;-66
2022/03/17 10:21:09;;;;;;;2.58;1.35;;;8.50;99.90;;;;;;5128652;27;20029;-67
2022/03/17 10:23:42;;;;;;;5.13;2.05;;;8.40;99.90;;;;;;5123402;27;20027;-66
2022/03/17 10:26:08;;;;;;;4.60;1.92;;;8.40;99.90;;;;;;5123733;27;20035;-66
2022/03/17 10:28:36;;;;;;;7.07;2.50;;;8.40;99.90;;;;;;5127851;27;20053;-66
2022/03/17 10:31:04;;;;;;;3.08;1.40;;;8.50;99.90;;;;;;5130299;27;20030;-67
2022/03/17 10:33:30;;;;;;;6.68;2.45;;;8.70;99.90;;;;;;5128214;27;20593;-67
2022/03/17 10:36:13;;;;;;;7.22;2.50;;;8.70;99.90;;;;;;5122733;27;20058;-67
2022/03/17 10:38:43;;;;;;;4.65;2.03;;;8.70;99.90;;;;;;5124331;27;20034;-67
2022/03/17 10:41:12;;;;;;;11.55;3.08;;;8.70;99.90;;;;;;5121156;27;20031;-67
2022/03/17 10:43:43;;;;;;;6.13;2.20;;;8.60;99.90;;;;;;5118426;27;20023;-67
2022/03/17 10:46:20;;;;;;;6.72;2.53;;;8.70;99.90;;;;;;5125714;27;20494;-66
2022/03/17 10:48:55;;;;;;;7.03;2.75;;;8.70;99.90;;;;;;5119438;27;20126;-67
2022/03/17 10:51:43;;;;;;;6.57;1.52;;;8.70;99.90;;;;;;5118992;27;20489;-67
2022/03/17 10:54:09;;;;;;;2.95;1.58;;;8.80;99.90;;;;;;5121126;27;20038;-66
2022/03/17 10:56:37;;;;;;;5.30;2.17;;;8.70;99.90;;;;;;5124052;27;20019;-66
2022/03/17 10:59:03;;;;;;;3.45;1.25;;;8.60;99.90;;;;;;5127662;27;20096;-66
2022/03/17 11:01:39;;;;;;;4.47;1.83;;;8.60;99.90;;;;;;5107018;27;20134;-66
2022/03/17 11:04:06;;;;;;;4.50;1.33;;;8.50;99.90;;;;;;5107509;27;20115;-66
2022/03/17 11:06:32;;;;;;;6.90;1.63;;;8.60;99.90;;;;;;5113138;27;20468;-66
2022/03/17 11:09:00;;;;;;;3.20;1.40;;;8.60;99.90;;;;;;5125521;27;20019;-66
2022/03/17 11:11:27;;;;;;;6.45;2.72;;;8.60;99.90;;;;;;5095864;27;20388;-66
2022/03/17 11:13:56;;;;;;;4.78;1.67;;;8.60;99.90;;;;;;5102642;27;20028;-66
2022/03/17 11:16:24;;;;;;;5.85;1.80;;;8.60;99.90;;;;;;5117588;27;20032;-66
2022/03/17 11:18:50;;;;;;;3.60;1.48;;;8.60;99.90;;;;;;5101772;27;20035;-66
2022/03/17 11:21:21;;;;;;;9.48;2.05;;;8.60;99.90;;;;;;5118339;27;20038;-67
2022/03/17 11:24:04;;;;;;;4.95;1.77;;;8.70;99.90;;;;;;5113547;27;20035;-66
2022/03/17 11:26:40;;;;;;;4.57;1.48;;;8.70;99.90;;;;;;5120144;27;20054;-66
2022/03/17 11:29:11;;;;;;;8.35;1.63;;;8.70;99.90;;;;;;5118377;27;20047;-66
2022/03/17 11:31:48;;;;;;;2.22;1.15;;;8.70;99.90;;;;;;5122477;27;20026;-66
2022/03/17 11:34:47;;;;;;;3.22;1.60;;;8.80;99.90;;;;;;5121533;27;20028;-66
2022/03/17 11:37:33;;;;;;;8.73;1.60;;;8.70;99.90;;;;;;5104267;27;20027;-67
2022/03/17 11:40:14;;;;;;;4.38;1.38;;;8.90;99.90;;;;;;5106925;27;20085;-66
2022/03/17 11:43:03;;;;;;;5.43;1.95;;;9.20;99.90;;;;;;5123930;27;20027;-66
2022/03/17 11:45:37;;;;;;;3.10;1.30;;;9.20;99.90;;;;;;5112649;27;20032;-66
2022/03/17 11:48:08;;;;;;;3.08;1.25;;;9.30;99.90;;;;;;5119658;27;20027;-66
2022/03/17 11:50:34;;;;;;;4.72;1.92;;;9.10;99.90;;;;;;5126568;27;20019;-66
2022/03/17 11:53:21;;;;;;;6.40;1.25;;;9.10;99.90;;;;;;5125049;27;20437;-66
2022/03/17 11:55:56;;;;;;;5.18;1.67;;;9.10;99.90;;;;;;5119212;27;20058;-66
2022/03/17 11:58:42;;;;;;;4.07;1.17;;;9.20;99.90;;;;;;5113703;27;20092;-66
2022/03/17 12:01:27;;;;;;;4.43;1.35;;;9.20;99.90;;;;;;5122011;27;20543;-66
2022/03/17 12:04:06;;;;;;;8.35;1.35;;;9.10;99.90;;;;;;5120354;27;20076;-66
2022/03/17 12:06:37;;;;;;;3.20;1.08;;;9.30;99.90;;;;;;5114958;27;20050;-67
2022/03/17 12:09:11;;;;;;;4.03;1.45;;;9.60;99.90;;;;;;5111952;27;20034;-66
2022/03/17 12:11:47;;;;;;;3.15;1.10;;;9.70;99.90;;;;;;5114385;27;20178;-67
2022/03/17 12:14:21;;;;;;;0.80;0.75;;;10.00;99.90;;;;;;5117890;27;20547;-67
2022/03/17 12:17:02;;;;;;;2.25;1.00;;;9.80;99.90;;;;;;5126949;27;20007;-67
2022/03/17 12:19:36;;;;;;;1.35;1.08;;;9.70;99.90;;;;;;5129921;27;20506;-67
2022/03/17 12:22:09;;;;;;;6.10;1.52;;;9.50;99.90;;;;;;5120681;27;20031;-67
2022/03/17 12:24:45;;;;;;;4.82;1.67;;;9.80;99.90;;;;;;5119999;27;20506;-67
2022/03/17 12:27:13;;;;;;;3.25;1.15;;;10.10;99.90;;;;;;5113579;27;20047;-67
2022/03/17 12:29:41;;;;;;;1.95;1.10;;;10.10;99.90;;;;;;5115984;27;20055;-67
2022/03/17 12:32:10;;;;;;;4.53;0.93;;;10.30;99.90;;;;;;5118210;27;20035;-67
2022/03/17 12:34:37;;;;;;;2.58;0.93;;;10.50;99.90;;;;;;5118844;27;20051;-67
2022/03/17 12:37:04;;;;;;;5.57;1.60;;;10.40;99.90;;;;;;5127678;27;20031;-67
2022/03/17 12:39:31;;;;;;;1.52;0.82;;;10.30;99.90;;;;;;5123903;27;20114;-67
2022/03/17 12:42:00;;;;;;;8.90;1.52;;;10.20;99.90;;;;;;5099608;28;20028;-68
2022/03/17 12:44:27;;;;;;;3.05;1.20;;;10.30;99.90;;;;;;5116189;27;20102;-68
2022/03/17 12:46:53;;;;;;;5.28;1.30;;;10.50;99.90;;;;;;5126351;27;20075;-68
2022/03/17 12:49:20;;;;;;;4.13;1.67;;;10.20;99.90;;;;;;5119959;27;20131;-68
2022/03/17 12:51:47;;;;;;;1.80;1.08;;;10.40;99.90;;;;;;5098595;27;20035;-68
2022/03/17 12:54:16;;;;;;;9.52;1.50;;;10.70;99.90;;;;;;5118807;27;20031;-67
2022/03/17 12:56:53;;;;;;;4.22;1.33;;;10.80;99.90;;;;;;5114817;27;20047;-68
2022/03/17 12:59:19;;;;;;;3.75;1.00;;;11.10;99.90;;;;;;5097737;28;20048;-68
2022/03/17 13:01:47;;;;;;;4.75;1.27;;;12.00;99.90;;;;;;5119930;27;20063;-67